sensor_id;sensor_type;location;lat;lon;timestamp;P1;durP1;ratioP1;P2;durP2;ratioP2
22015;SDS011;64992;51.698;-0.292;2023-12-20T00:01:14;32.10;;;18.23;;
22015;SDS011;64992;51.698;-0.292;2023-12-20T00:03:40;19.20;;;17.45;;
22015;SDS011;64992;51.698;-0.292;2023-12-20T00:06:07;22.48;;;17.50;;
22015;SDS011;64992;51.698;-0.292;2023-12-20T00:08:33;29.63;;;18.58;;
22015;SDS011;64992;51.698;-0.292;2023-12-20T00:10:59;37.30;;;18.05;;
22015;SDS011;64992;51.698;-0.292;2023-12-20T00:13:25;32.95;;;18.40;;
22015;SDS011;64992;51.698;-0.292;2023-12-20T00:15:51;24.45;;;18.98;;
22015;SDS011;64992;51.698;-0.292;2023-12-20T00:18:18;20.08;;;18.13;;
22015;SDS011;64992;51.698;-0.292;2023-12-20T00:20:44;19.77;;;17.95;;
22015;SDS011;64992;51.698;-0.292;2023-12-20T00:23:10;21.27;;;18.48;;
22015;SDS011;64992;51.698;-0.292;2023-12-20T00:25:37;19.60;;;17.80;;
22015;SDS011;64992;51.698;-0.292;2023-12-20T00:28:03;32.00;;;18.00;;
22015;SDS011;64992;51.698;-0.292;2023-12-20T00:30:29;22.88;;;17.85;;
22015;SDS011;64992;51.698;-0.292;2023-12-20T00:32:56;19.45;;;17.45;;
22015;SDS011;64992;51.698;-0.292;2023-12-20T00:35:22;24.95;;;17.85;;
22015;SDS011;64992;51.698;-0.292;2023-12-20T00:37:49;30.23;;;17.90;;
22015;SDS011;64992;51.698;-0.292;2023-12-20T00:40:15;24.02;;;17.50;;
22015;SDS011;64992;51.698;-0.292;2023-12-20T00:42:41;17.98;;;15.98;;
22015;SDS011;64992;51.698;-0.292;2023-12-20T00:45:07;28.60;;;17.63;;
22015;SDS011;64992;51.698;-0.292;2023-12-20T00:47:34;18.67;;;15.88;;
22015;SDS011;64992;51.698;-0.292;2023-12-20T00:50:01;26.08;;;16.65;;
22015;SDS011;64992;51.698;-0.292;2023-12-20T00:52:28;18.65;;;16.92;;
22015;SDS011;64992;51.698;-0.292;2023-12-20T00:54:55;18.40;;;17.00;;
22015;SDS011;64992;51.698;-0.292;2023-12-20T00:57:21;22.02;;;16.75;;
22015;SDS011;64992;51.698;-0.292;2023-12-20T00:59:47;28.17;;;18.23;;
22015;SDS011;64992;51.698;-0.292;2023-12-20T01:02:14;22.90;;;17.90;;
22015;SDS011;64992;51.698;-0.292;2023-12-20T01:04:40;27.83;;;18.35;;
22015;SDS011;64992;51.698;-0.292;2023-12-20T01:07:07;24.40;;;17.05;;
22015;SDS011;64992;51.698;-0.292;2023-12-20T01:09:33;21.10;;;18.42;;
22015;SDS011;64992;51.698;-0.292;2023-12-20T01:12:00;23.60;;;18.60;;
22015;SDS011;64992;51.698;-0.292;2023-12-20T01:14:26;26.85;;;18.67;;
22015;SDS011;64992;51.698;-0.292;2023-12-20T01:16:53;28.95;;;18.42;;
22015;SDS011;64992;51.698;-0.292;2023-12-20T01:19:19;27.83;;;18.27;;
22015;SDS011;64992;51.698;-0.292;2023-12-20T01:21:46;27.75;;;18.42;;
22015;SDS011;64992;51.698;-0.292;2023-12-20T01:24:13;22.50;;;18.08;;
22015;SDS011;64992;51.698;-0.292;2023-12-20T01:26:40;25.33;;;19.00;;
22015;SDS011;64992;51.698;-0.292;2023-12-20T01:29:06;30.45;;;19.05;;
22015;SDS011;64992;51.698;-0.292;2023-12-20T01:31:32;33.40;;;19.20;;
22015;SDS011;64992;51.698;-0.292;2023-12-20T01:33:58;21.92;;;18.80;;
22015;SDS011;64992;51.698;-0.292;2023-12-20T01:36:24;21.02;;;18.70;;
22015;SDS011;64992;51.698;-0.292;2023-12-20T01:38:50;22.92;;;19.02;;
22015;SDS011;64992;51.698;-0.292;2023-12-20T01:41:17;20.48;;;18.13;;
22015;SDS011;64992;51.698;-0.292;2023-12-20T01:43:43;27.23;;;19.17;;
22015;SDS011;64992;51.698;-0.292;2023-12-20T01:46:10;21.83;;;19.35;;
22015;SDS011;64992;51.698;-0.292;2023-12-20T01:48:37;28.45;;;20.02;;
22015;SDS011;64992;51.698;-0.292;2023-12-20T01:51:04;25.20;;;19.48;;
22015;SDS011;64992;51.698;-0.292;2023-12-20T01:53:30;29.48;;;19.85;;
22015;SDS011;64992;51.698;-0.292;2023-12-20T01:55:58;22.33;;;20.05;;
22015;SDS011;64992;51.698;-0.292;2023-12-20T01:58:25;21.52;;;19.33;;
22015;SDS011;64992;51.698;-0.292;2023-12-20T02:00:52;33.75;;;19.80;;
22015;SDS011;64992;51.698;-0.292;2023-12-20T02:03:19;33.95;;;19.63;;
22015;SDS011;64992;51.698;-0.292;2023-12-20T02:05:46;21.95;;;19.20;;
22015;SDS011;64992;51.698;-0.292;2023-12-20T02:08:13;28.65;;;19.45;;
22015;SDS011;64992;51.698;-0.292;2023-12-20T02:10:40;35.08;;;19.85;;
22015;SDS011;64992;51.698;-0.292;2023-12-20T02:13:07;28.30;;;20.05;;
22015;SDS011;64992;51.698;-0.292;2023-12-20T02:15:33;36.13;;;20.40;;
22015;SDS011;64992;51.698;-0.292;2023-12-20T02:17:59;26.67;;;19.83;;
22015;SDS011;64992;51.698;-0.292;2023-12-20T02:20:26;33.60;;;20.20;;
22015;SDS011;64992;51.698;-0.292;2023-12-20T02:22:52;23.40;;;19.88;;
22015;SDS011;64992;51.698;-0.292;2023-12-20T02:25:19;22.67;;;20.38;;
22015;SDS011;64992;51.698;-0.292;2023-12-20T02:27:45;26.65;;;20.90;;
22015;SDS011;64992;51.698;-0.292;2023-12-20T02:30:11;23.48;;;20.92;;
22015;SDS011;64992;51.698;-0.292;2023-12-20T02:32:38;25.17;;;19.85;;
22015;SDS011;64992;51.698;-0.292;2023-12-20T02:35:05;29.73;;;19.25;;
22015;SDS011;64992;51.698;-0.292;2023-12-20T02:37:32;25.77;;;19.45;;
22015;SDS011;64992;51.698;-0.292;2023-12-20T02:39:59;26.73;;;20.23;;
22015;SDS011;64992;51.698;-0.292;2023-12-20T02:42:25;24.05;;;20.08;;
22015;SDS011;64992;51.698;-0.292;2023-12-20T02:44:51;27.83;;;20.70;;
22015;SDS011;64992;51.698;-0.292;2023-12-20T02:47:17;22.00;;;19.88;;
22015;SDS011;64992;51.698;-0.292;2023-12-20T02:49:43;31.20;;;21.40;;
22015;SDS011;64992;51.698;-0.292;2023-12-20T02:52:09;30.35;;;21.15;;
22015;SDS011;64992;51.698;-0.292;2023-12-20T02:54:36;31.02;;;21.50;;
22015;SDS011;64992;51.698;-0.292;2023-12-20T02:57:02;26.48;;;21.30;;
22015;SDS011;64992;51.698;-0.292;2023-12-20T02:59:29;23.63;;;21.20;;
22015;SDS011;64992;51.698;-0.292;2023-12-20T03:01:56;21.48;;;19.67;;
22015;SDS011;64992;51.698;-0.292;2023-12-20T03:04:22;21.50;;;19.40;;
22015;SDS011;64992;51.698;-0.292;2023-12-20T03:06:48;31.30;;;20.15;;
22015;SDS011;64992;51.698;-0.292;2023-12-20T03:09:15;23.45;;;19.17;;
22015;SDS011;64992;51.698;-0.292;2023-12-20T03:11:42;26.45;;;20.63;;
22015;SDS011;64992;51.698;-0.292;2023-12-20T03:14:08;31.45;;;20.33;;
22015;SDS011;64992;51.698;-0.292;2023-12-20T03:16:34;30.67;;;20.67;;
22015;SDS011;64992;51.698;-0.292;2023-12-20T03:19:00;25.63;;;20.33;;
22015;SDS011;64992;51.698;-0.292;2023-12-20T03:21:26;34.05;;;21.25;;
22015;SDS011;64992;51.698;-0.292;2023-12-20T03:23:53;28.42;;;19.80;;
22015;SDS011;64992;51.698;-0.292;2023-12-20T03:26:19;24.95;;;19.90;;
22015;SDS011;64992;51.698;-0.292;2023-12-20T03:28:45;33.30;;;20.80;;
22015;SDS011;64992;51.698;-0.292;2023-12-20T03:31:12;29.90;;;21.05;;
22015;SDS011;64992;51.698;-0.292;2023-12-20T03:33:38;28.08;;;20.73;;
22015;SDS011;64992;51.698;-0.292;2023-12-20T03:36:04;24.77;;;20.42;;
22015;SDS011;64992;51.698;-0.292;2023-12-20T03:38:30;37.38;;;20.98;;
22015;SDS011;64992;51.698;-0.292;2023-12-20T03:40:57;29.45;;;20.55;;
22015;SDS011;64992;51.698;-0.292;2023-12-20T03:43:23;32.92;;;21.50;;
22015;SDS011;64992;51.698;-0.292;2023-12-20T03:45:49;31.35;;;21.50;;
22015;SDS011;64992;51.698;-0.292;2023-12-20T03:48:16;35.20;;;22.02;;
22015;SDS011;64992;51.698;-0.292;2023-12-20T03:50:42;37.95;;;21.55;;
22015;SDS011;64992;51.698;-0.292;2023-12-20T03:53:12;35.70;;;21.25;;
22015;SDS011;64992;51.698;-0.292;2023-12-20T03:55:38;24.92;;;22.55;;
22015;SDS011;64992;51.698;-0.292;2023-12-20T03:58:04;32.42;;;21.45;;
22015;SDS011;64992;51.698;-0.292;2023-12-20T04:00:31;22.50;;;20.23;;
22015;SDS011;64992;51.698;-0.292;2023-12-20T04:02:57;25.15;;;19.02;;
22015;SDS011;64992;51.698;-0.292;2023-12-20T04:05:24;34.28;;;20.45;;
22015;SDS011;64992;51.698;-0.292;2023-12-20T04:07:50;45.83;;;21.20;;
22015;SDS011;64992;51.698;-0.292;2023-12-20T04:10:16;30.58;;;19.10;;
22015;SDS011;64992;51.698;-0.292;2023-12-20T04:12:42;28.27;;;20.58;;
22015;SDS011;64992;51.698;-0.292;2023-12-20T04:15:09;24.83;;;19.83;;
22015;SDS011;64992;51.698;-0.292;2023-12-20T04:17:38;26.58;;;19.63;;
22015;SDS011;64992;51.698;-0.292;2023-12-20T04:20:04;26.15;;;19.52;;
22015;SDS011;64992;51.698;-0.292;2023-12-20T04:22:30;25.70;;;19.48;;
22015;SDS011;64992;51.698;-0.292;2023-12-20T04:24:56;25.20;;;20.98;;
22015;SDS011;64992;51.698;-0.292;2023-12-20T04:27:22;38.13;;;20.77;;
22015;SDS011;64992;51.698;-0.292;2023-12-20T04:29:49;28.20;;;20.25;;
22015;SDS011;64992;51.698;-0.292;2023-12-20T04:32:15;29.85;;;20.27;;
22015;SDS011;64992;51.698;-0.292;2023-12-20T04:34:42;33.25;;;19.58;;
22015;SDS011;64992;51.698;-0.292;2023-12-20T04:37:08;24.55;;;19.80;;
22015;SDS011;64992;51.698;-0.292;2023-12-20T04:39:35;38.95;;;21.25;;
22015;SDS011;64992;51.698;-0.292;2023-12-20T04:42:01;27.00;;;20.33;;
22015;SDS011;64992;51.698;-0.292;2023-12-20T04:44:27;22.85;;;19.50;;
22015;SDS011;64992;51.698;-0.292;2023-12-20T04:46:54;29.17;;;21.73;;
22015;SDS011;64992;51.698;-0.292;2023-12-20T04:49:21;30.92;;;21.02;;
22015;SDS011;64992;51.698;-0.292;2023-12-20T04:51:47;25.83;;;20.00;;
22015;SDS011;64992;51.698;-0.292;2023-12-20T04:54:14;21.02;;;19.13;;
22015;SDS011;64992;51.698;-0.292;2023-12-20T04:56:41;36.17;;;20.13;;
22015;SDS011;64992;51.698;-0.292;2023-12-20T04:59:07;34.70;;;21.02;;
22015;SDS011;64992;51.698;-0.292;2023-12-20T05:01:33;29.85;;;19.88;;
22015;SDS011;64992;51.698;-0.292;2023-12-20T05:03:59;25.95;;;20.92;;
22015;SDS011;64992;51.698;-0.292;2023-12-20T05:06:25;32.47;;;20.77;;
22015;SDS011;64992;51.698;-0.292;2023-12-20T05:08:51;25.20;;;21.10;;
22015;SDS011;64992;51.698;-0.292;2023-12-20T05:11:17;31.90;;;20.90;;
22015;SDS011;64992;51.698;-0.292;2023-12-20T05:13:43;35.10;;;20.65;;
22015;SDS011;64992;51.698;-0.292;2023-12-20T05:16:09;27.77;;;20.33;;
22015;SDS011;64992;51.698;-0.292;2023-12-20T05:18:36;24.13;;;20.67;;
22015;SDS011;64992;51.698;-0.292;2023-12-20T05:21:02;37.03;;;20.77;;
22015;SDS011;64992;51.698;-0.292;2023-12-20T05:23:28;35.67;;;22.88;;
22015;SDS011;64992;51.698;-0.292;2023-12-20T05:25:54;25.33;;;22.50;;
22015;SDS011;64992;51.698;-0.292;2023-12-20T05:28:21;31.15;;;22.63;;
22015;SDS011;64992;51.698;-0.292;2023-12-20T05:30:48;32.10;;;22.65;;
22015;SDS011;64992;51.698;-0.292;2023-12-20T05:33:14;33.53;;;21.30;;
22015;SDS011;64992;51.698;-0.292;2023-12-20T05:35:40;28.63;;;21.92;;
22015;SDS011;64992;51.698;-0.292;2023-12-20T05:38:06;29.35;;;22.48;;
22015;SDS011;64992;51.698;-0.292;2023-12-20T05:40:32;38.10;;;22.88;;
22015;SDS011;64992;51.698;-0.292;2023-12-20T05:42:58;31.83;;;21.98;;
22015;SDS011;64992;51.698;-0.292;2023-12-20T05:45:25;25.05;;;22.08;;
22015;SDS011;64992;51.698;-0.292;2023-12-20T05:47:51;28.25;;;21.60;;
22015;SDS011;64992;51.698;-0.292;2023-12-20T05:50:17;33.55;;;22.08;;
22015;SDS011;64992;51.698;-0.292;2023-12-20T05:52:43;31.70;;;22.08;;
22015;SDS011;64992;51.698;-0.292;2023-12-20T05:55:09;23.80;;;21.40;;
22015;SDS011;64992;51.698;-0.292;2023-12-20T05:57:35;30.10;;;22.20;;
22015;SDS011;64992;51.698;-0.292;2023-12-20T06:00:02;48.58;;;24.00;;
22015;SDS011;64992;51.698;-0.292;2023-12-20T06:02:28;33.70;;;23.65;;
22015;SDS011;64992;51.698;-0.292;2023-12-20T06:04:55;29.88;;;22.65;;
22015;SDS011;64992;51.698;-0.292;2023-12-20T06:07:21;31.08;;;22.05;;
22015;SDS011;64992;51.698;-0.292;2023-12-20T06:09:47;173.45;;;41.65;;
22015;SDS011;64992;51.698;-0.292;2023-12-20T06:12:14;28.40;;;22.50;;
22015;SDS011;64992;51.698;-0.292;2023-12-20T06:14:40;31.92;;;22.35;;
22015;SDS011;64992;51.698;-0.292;2023-12-20T06:17:07;44.00;;;22.67;;
22015;SDS011;64992;51.698;-0.292;2023-12-20T06:19:33;34.35;;;22.65;;
22015;SDS011;64992;51.698;-0.292;2023-12-20T06:21:59;42.65;;;23.13;;
22015;SDS011;64992;51.698;-0.292;2023-12-20T06:24:26;32.83;;;22.77;;
22015;SDS011;64992;51.698;-0.292;2023-12-20T06:26:53;42.28;;;22.77;;
22015;SDS011;64992;51.698;-0.292;2023-12-20T06:29:23;32.47;;;22.92;;
22015;SDS011;64992;51.698;-0.292;2023-12-20T06:31:49;38.30;;;23.88;;
22015;SDS011;64992;51.698;-0.292;2023-12-20T06:34:15;58.30;;;24.27;;
22015;SDS011;64992;51.698;-0.292;2023-12-20T06:36:42;37.83;;;22.77;;
22015;SDS011;64992;51.698;-0.292;2023-12-20T06:39:09;41.47;;;22.35;;
22015;SDS011;64992;51.698;-0.292;2023-12-20T06:41:38;42.25;;;22.70;;
22015;SDS011;64992;51.698;-0.292;2023-12-20T06:44:04;64.93;;;25.83;;
22015;SDS011;64992;51.698;-0.292;2023-12-20T06:46:30;25.23;;;22.63;;
22015;SDS011;64992;51.698;-0.292;2023-12-20T06:48:56;34.60;;;22.02;;
22015;SDS011;64992;51.698;-0.292;2023-12-20T06:51:23;36.03;;;23.55;;
22015;SDS011;64992;51.698;-0.292;2023-12-20T06:53:51;25.23;;;22.85;;
22015;SDS011;64992;51.698;-0.292;2023-12-20T06:56:17;29.73;;;21.85;;
22015;SDS011;64992;51.698;-0.292;2023-12-20T06:58:44;32.95;;;23.15;;
22015;SDS011;64992;51.698;-0.292;2023-12-20T07:01:14;36.50;;;22.63;;
22015;SDS011;64992;51.698;-0.292;2023-12-20T07:03:40;34.83;;;23.45;;
22015;SDS011;64992;51.698;-0.292;2023-12-20T07:06:07;33.58;;;23.15;;
22015;SDS011;64992;51.698;-0.292;2023-12-20T07:08:33;28.63;;;22.13;;
22015;SDS011;64992;51.698;-0.292;2023-12-20T07:11:00;40.92;;;25.10;;
22015;SDS011;64992;51.698;-0.292;2023-12-20T07:13:26;41.22;;;24.35;;
22015;SDS011;64992;51.698;-0.292;2023-12-20T07:15:53;30.52;;;22.83;;
22015;SDS011;64992;51.698;-0.292;2023-12-20T07:18:19;25.77;;;23.02;;
22015;SDS011;64992;51.698;-0.292;2023-12-20T07:20:45;37.90;;;22.52;;
22015;SDS011;64992;51.698;-0.292;2023-12-20T07:23:12;38.28;;;23.65;;
22015;SDS011;64992;51.698;-0.292;2023-12-20T07:25:38;34.90;;;23.58;;
22015;SDS011;64992;51.698;-0.292;2023-12-20T07:28:05;46.53;;;24.52;;
22015;SDS011;64992;51.698;-0.292;2023-12-20T07:30:31;39.00;;;24.00;;
22015;SDS011;64992;51.698;-0.292;2023-12-20T07:32:57;27.00;;;23.65;;
22015;SDS011;64992;51.698;-0.292;2023-12-20T07:35:24;32.63;;;23.38;;
22015;SDS011;64992;51.698;-0.292;2023-12-20T07:37:50;39.97;;;22.13;;
22015;SDS011;64992;51.698;-0.292;2023-12-20T07:40:17;31.48;;;22.75;;
22015;SDS011;64992;51.698;-0.292;2023-12-20T07:42:43;39.25;;;23.10;;
22015;SDS011;64992;51.698;-0.292;2023-12-20T07:45:10;42.20;;;23.05;;
22015;SDS011;64992;51.698;-0.292;2023-12-20T07:47:37;27.33;;;23.35;;
22015;SDS011;64992;51.698;-0.292;2023-12-20T07:50:03;46.33;;;23.80;;
22015;SDS011;64992;51.698;-0.292;2023-12-20T07:52:29;32.42;;;23.42;;
22015;SDS011;64992;51.698;-0.292;2023-12-20T07:54:56;34.22;;;23.70;;
22015;SDS011;64992;51.698;-0.292;2023-12-20T07:57:23;28.98;;;21.83;;
22015;SDS011;64992;51.698;-0.292;2023-12-20T07:59:49;40.67;;;23.48;;
22015;SDS011;64992;51.698;-0.292;2023-12-20T08:02:15;44.25;;;24.23;;
22015;SDS011;64992;51.698;-0.292;2023-12-20T08:04:41;90.93;;;28.08;;
22015;SDS011;64992;51.698;-0.292;2023-12-20T08:07:07;68.95;;;26.63;;
22015;SDS011;64992;51.698;-0.292;2023-12-20T08:09:34;46.67;;;24.83;;
22015;SDS011;64992;51.698;-0.292;2023-12-20T08:12:02;46.47;;;24.73;;
22015;SDS011;64992;51.698;-0.292;2023-12-20T08:14:28;67.95;;;26.05;;
22015;SDS011;64992;51.698;-0.292;2023-12-20T08:16:54;53.35;;;24.60;;
22015;SDS011;64992;51.698;-0.292;2023-12-20T08:19:21;46.85;;;24.98;;
22015;SDS011;64992;51.698;-0.292;2023-12-20T08:21:47;34.58;;;25.35;;
22015;SDS011;64992;51.698;-0.292;2023-12-20T08:24:14;36.55;;;24.83;;
22015;SDS011;64992;51.698;-0.292;2023-12-20T08:26:40;38.10;;;23.42;;
22015;SDS011;64992;51.698;-0.292;2023-12-20T08:29:06;28.05;;;23.88;;
22015;SDS011;64992;51.698;-0.292;2023-12-20T08:31:32;25.33;;;22.58;;
22015;SDS011;64992;51.698;-0.292;2023-12-20T08:33:59;34.65;;;24.58;;
22015;SDS011;64992;51.698;-0.292;2023-12-20T08:36:26;31.75;;;23.05;;
22015;SDS011;64992;51.698;-0.292;2023-12-20T08:38:52;40.53;;;23.55;;
22015;SDS011;64992;51.698;-0.292;2023-12-20T08:41:20;29.83;;;23.85;;
22015;SDS011;64992;51.698;-0.292;2023-12-20T08:43:46;40.22;;;23.88;;
22015;SDS011;64992;51.698;-0.292;2023-12-20T08:46:14;45.50;;;24.00;;
22015;SDS011;64992;51.698;-0.292;2023-12-20T08:48:40;56.97;;;24.98;;
22015;SDS011;64992;51.698;-0.292;2023-12-20T08:51:07;50.90;;;23.73;;
22015;SDS011;64992;51.698;-0.292;2023-12-20T08:53:34;42.03;;;24.10;;
22015;SDS011;64992;51.698;-0.292;2023-12-20T08:56:00;29.08;;;24.35;;
22015;SDS011;64992;51.698;-0.292;2023-12-20T08:58:27;30.25;;;23.58;;
22015;SDS011;64992;51.698;-0.292;2023-12-20T09:00:54;28.65;;;23.05;;
22015;SDS011;64992;51.698;-0.292;2023-12-20T09:03:20;55.30;;;25.67;;
22015;SDS011;64992;51.698;-0.292;2023-12-20T09:05:47;40.50;;;25.23;;
22015;SDS011;64992;51.698;-0.292;2023-12-20T09:08:13;45.72;;;25.00;;
22015;SDS011;64992;51.698;-0.292;2023-12-20T09:10:39;41.00;;;24.52;;
22015;SDS011;64992;51.698;-0.292;2023-12-20T09:13:06;37.75;;;24.65;;
22015;SDS011;64992;51.698;-0.292;2023-12-20T09:15:32;42.45;;;24.58;;
22015;SDS011;64992;51.698;-0.292;2023-12-20T09:17:59;41.33;;;24.80;;
22015;SDS011;64992;51.698;-0.292;2023-12-20T09:20:25;47.22;;;24.52;;
22015;SDS011;64992;51.698;-0.292;2023-12-20T09:22:52;32.40;;;22.95;;
22015;SDS011;64992;51.698;-0.292;2023-12-20T09:25:18;28.58;;;23.90;;
22015;SDS011;64992;51.698;-0.292;2023-12-20T09:27:45;25.77;;;22.98;;
22015;SDS011;64992;51.698;-0.292;2023-12-20T09:30:11;27.23;;;23.05;;
22015;SDS011;64992;51.698;-0.292;2023-12-20T09:32:38;28.90;;;23.45;;
22015;SDS011;64992;51.698;-0.292;2023-12-20T09:35:04;36.58;;;23.75;;
22015;SDS011;64992;51.698;-0.292;2023-12-20T09:37:32;41.30;;;23.75;;
22015;SDS011;64992;51.698;-0.292;2023-12-20T09:39:58;33.63;;;23.35;;
22015;SDS011;64992;51.698;-0.292;2023-12-20T09:42:26;37.00;;;24.27;;
22015;SDS011;64992;51.698;-0.292;2023-12-20T09:44:55;39.42;;;23.98;;
22015;SDS011;64992;51.698;-0.292;2023-12-20T09:47:24;34.50;;;23.52;;
22015;SDS011;64992;51.698;-0.292;2023-12-20T09:49:51;50.92;;;23.35;;
22015;SDS011;64992;51.698;-0.292;2023-12-20T09:52:18;41.22;;;25.05;;
22015;SDS011;64992;51.698;-0.292;2023-12-20T09:54:44;41.13;;;23.70;;
22015;SDS011;64992;51.698;-0.292;2023-12-20T09:57:11;38.95;;;23.17;;
22015;SDS011;64992;51.698;-0.292;2023-12-20T09:59:38;36.17;;;23.52;;
22015;SDS011;64992;51.698;-0.292;2023-12-20T10:02:05;35.95;;;24.05;;
22015;SDS011;64992;51.698;-0.292;2023-12-20T10:04:34;39.33;;;23.67;;
22015;SDS011;64992;51.698;-0.292;2023-12-20T10:07:03;36.42;;;25.52;;
22015;SDS011;64992;51.698;-0.292;2023-12-20T10:09:30;26.73;;;24.00;;
22015;SDS011;64992;51.698;-0.292;2023-12-20T10:11:57;31.45;;;24.05;;
22015;SDS011;64992;51.698;-0.292;2023-12-20T10:14:24;32.45;;;24.45;;
22015;SDS011;64992;51.698;-0.292;2023-12-20T10:16:50;41.70;;;25.23;;
22015;SDS011;64992;51.698;-0.292;2023-12-20T10:19:17;27.13;;;24.45;;
22015;SDS011;64992;51.698;-0.292;2023-12-20T10:21:43;29.23;;;23.60;;
22015;SDS011;64992;51.698;-0.292;2023-12-20T10:24:10;34.15;;;24.20;;
22015;SDS011;64992;51.698;-0.292;2023-12-20T10:26:42;29.08;;;24.40;;
22015;SDS011;64992;51.698;-0.292;2023-12-20T10:29:08;37.67;;;24.25;;
22015;SDS011;64992;51.698;-0.292;2023-12-20T10:31:36;25.65;;;23.17;;
22015;SDS011;64992;51.698;-0.292;2023-12-20T10:34:04;31.33;;;24.23;;
22015;SDS011;64992;51.698;-0.292;2023-12-20T10:36:31;35.88;;;23.80;;
22015;SDS011;64992;51.698;-0.292;2023-12-20T10:38:58;32.25;;;23.45;;
22015;SDS011;64992;51.698;-0.292;2023-12-20T10:41:27;25.67;;;22.98;;
22015;SDS011;64992;51.698;-0.292;2023-12-20T10:44:03;28.52;;;22.40;;
22015;SDS011;64992;51.698;-0.292;2023-12-20T10:46:30;38.30;;;23.25;;
22015;SDS011;64992;51.698;-0.292;2023-12-20T10:49:02;25.55;;;23.15;;
22015;SDS011;64992;51.698;-0.292;2023-12-20T10:51:28;27.13;;;23.38;;
22015;SDS011;64992;51.698;-0.292;2023-12-20T10:53:55;26.65;;;23.48;;
22015;SDS011;64992;51.698;-0.292;2023-12-20T10:56:22;28.98;;;24.10;;
22015;SDS011;64992;51.698;-0.292;2023-12-20T10:58:49;27.35;;;24.42;;
22015;SDS011;64992;51.698;-0.292;2023-12-20T11:01:17;30.85;;;23.50;;
22015;SDS011;64992;51.698;-0.292;2023-12-20T11:03:53;29.17;;;24.05;;
22015;SDS011;64992;51.698;-0.292;2023-12-20T11:08:47;26.38;;;23.73;;
22015;SDS011;64992;51.698;-0.292;2023-12-20T11:14:03;27.30;;;24.65;;
22015;SDS011;64992;51.698;-0.292;2023-12-20T11:16:31;27.58;;;24.13;;
22015;SDS011;64992;51.698;-0.292;2023-12-20T11:19:04;33.00;;;25.35;;
22015;SDS011;64992;51.698;-0.292;2023-12-20T11:21:30;28.45;;;24.98;;
22015;SDS011;64992;51.698;-0.292;2023-12-20T11:23:57;28.23;;;23.33;;
22015;SDS011;64992;51.698;-0.292;2023-12-20T11:26:26;28.67;;;24.05;;
22015;SDS011;64992;51.698;-0.292;2023-12-20T11:28:54;30.95;;;24.17;;
22015;SDS011;64992;51.698;-0.292;2023-12-20T11:31:20;30.15;;;21.67;;
22015;SDS011;64992;51.698;-0.292;2023-12-20T11:33:46;25.10;;;22.58;;
22015;SDS011;64992;51.698;-0.292;2023-12-20T11:36:19;25.70;;;22.95;;
22015;SDS011;64992;51.698;-0.292;2023-12-20T11:38:58;25.00;;;21.98;;
22015;SDS011;64992;51.698;-0.292;2023-12-20T11:41:25;25.08;;;22.95;;
22015;SDS011;64992;51.698;-0.292;2023-12-20T11:43:55;26.58;;;23.92;;
22015;SDS011;64992;51.698;-0.292;2023-12-20T11:46:21;24.90;;;22.30;;
22015;SDS011;64992;51.698;-0.292;2023-12-20T11:48:48;25.30;;;22.50;;
22015;SDS011;64992;51.698;-0.292;2023-12-20T11:51:14;32.55;;;22.90;;
22015;SDS011;64992;51.698;-0.292;2023-12-20T11:53:41;24.08;;;21.70;;
22015;SDS011;64992;51.698;-0.292;2023-12-20T11:56:07;26.25;;;22.27;;
22015;SDS011;64992;51.698;-0.292;2023-12-20T11:58:34;24.30;;;21.92;;
22015;SDS011;64992;51.698;-0.292;2023-12-20T12:01:01;25.75;;;20.77;;
22015;SDS011;64992;51.698;-0.292;2023-12-20T12:03:28;24.17;;;21.85;;
22015;SDS011;64992;51.698;-0.292;2023-12-20T12:05:54;26.00;;;21.58;;
22015;SDS011;64992;51.698;-0.292;2023-12-20T12:08:20;22.65;;;20.80;;
22015;SDS011;64992;51.698;-0.292;2023-12-20T12:10:47;24.30;;;20.30;;
22015;SDS011;64992;51.698;-0.292;2023-12-20T12:13:13;22.67;;;20.48;;
22015;SDS011;64992;51.698;-0.292;2023-12-20T12:15:39;21.23;;;19.42;;
22015;SDS011;64992;51.698;-0.292;2023-12-20T12:18:07;21.15;;;19.20;;
22015;SDS011;64992;51.698;-0.292;2023-12-20T12:20:33;21.73;;;19.70;;
22015;SDS011;64992;51.698;-0.292;2023-12-20T12:23:00;20.83;;;18.80;;
22015;SDS011;64992;51.698;-0.292;2023-12-20T12:25:26;20.00;;;18.13;;
22015;SDS011;64992;51.698;-0.292;2023-12-20T12:27:55;19.70;;;17.85;;
22015;SDS011;64992;51.698;-0.292;2023-12-20T12:30:21;20.38;;;18.40;;
22015;SDS011;64992;51.698;-0.292;2023-12-20T12:32:52;19.02;;;17.50;;
22015;SDS011;64992;51.698;-0.292;2023-12-20T12:35:19;19.83;;;18.52;;
22015;SDS011;64992;51.698;-0.292;2023-12-20T12:37:46;20.60;;;18.63;;
22015;SDS011;64992;51.698;-0.292;2023-12-20T12:40:13;20.17;;;17.63;;
22015;SDS011;64992;51.698;-0.292;2023-12-20T12:42:41;18.45;;;16.88;;
22015;SDS011;64992;51.698;-0.292;2023-12-20T12:45:07;19.50;;;18.02;;
22015;SDS011;64992;51.698;-0.292;2023-12-20T12:47:34;18.13;;;16.42;;
22015;SDS011;64992;51.698;-0.292;2023-12-20T12:50:01;17.80;;;16.35;;
22015;SDS011;64992;51.698;-0.292;2023-12-20T12:52:27;14.90;;;13.98;;
22015;SDS011;64992;51.698;-0.292;2023-12-20T12:54:53;16.38;;;15.02;;
22015;SDS011;64992;51.698;-0.292;2023-12-20T12:57:19;15.88;;;14.20;;
22015;SDS011;64992;51.698;-0.292;2023-12-20T12:59:46;16.52;;;15.02;;
22015;SDS011;64992;51.698;-0.292;2023-12-20T13:02:12;15.25;;;13.88;;
22015;SDS011;64992;51.698;-0.292;2023-12-20T13:04:40;15.10;;;14.02;;
22015;SDS011;64992;51.698;-0.292;2023-12-20T13:07:07;15.07;;;14.18;;
22015;SDS011;64992;51.698;-0.292;2023-12-20T13:09:35;14.57;;;13.48;;
22015;SDS011;64992;51.698;-0.292;2023-12-20T13:12:01;13.93;;;13.02;;
22015;SDS011;64992;51.698;-0.292;2023-12-20T13:14:29;14.07;;;13.25;;
22015;SDS011;64992;51.698;-0.292;2023-12-20T13:16:55;14.75;;;13.15;;
22015;SDS011;64992;51.698;-0.292;2023-12-20T13:22:14;14.70;;;13.63;;
22015;SDS011;64992;51.698;-0.292;2023-12-20T13:24:41;15.00;;;13.70;;
22015;SDS011;64992;51.698;-0.292;2023-12-20T13:27:09;14.57;;;13.77;;
22015;SDS011;64992;51.698;-0.292;2023-12-20T13:29:35;14.60;;;13.50;;
22015;SDS011;64992;51.698;-0.292;2023-12-20T13:32:01;15.45;;;13.88;;
22015;SDS011;64992;51.698;-0.292;2023-12-20T13:34:28;14.63;;;13.02;;
22015;SDS011;64992;51.698;-0.292;2023-12-20T13:36:54;14.57;;;13.02;;
22015;SDS011;64992;51.698;-0.292;2023-12-20T13:39:21;13.13;;;11.23;;
22015;SDS011;64992;51.698;-0.292;2023-12-20T13:41:48;11.95;;;10.93;;
22015;SDS011;64992;51.698;-0.292;2023-12-20T13:44:14;13.18;;;9.73;;
22015;SDS011;64992;51.698;-0.292;2023-12-20T13:46:40;12.38;;;9.93;;
22015;SDS011;64992;51.698;-0.292;2023-12-20T13:49:06;13.02;;;10.80;;
22015;SDS011;64992;51.698;-0.292;2023-12-20T13:51:33;11.40;;;10.40;;
22015;SDS011;64992;51.698;-0.292;2023-12-20T13:53:59;9.68;;;8.85;;
22015;SDS011;64992;51.698;-0.292;2023-12-20T13:56:25;9.63;;;8.70;;
22015;SDS011;64992;51.698;-0.292;2023-12-20T13:58:51;10.00;;;9.30;;
22015;SDS011;64992;51.698;-0.292;2023-12-20T14:01:17;13.82;;;9.50;;
22015;SDS011;64992;51.698;-0.292;2023-12-20T14:03:43;10.63;;;8.38;;
22015;SDS011;64992;51.698;-0.292;2023-12-20T14:06:09;9.30;;;8.43;;
22015;SDS011;64992;51.698;-0.292;2023-12-20T14:08:35;8.57;;;7.55;;
22015;SDS011;64992;51.698;-0.292;2023-12-20T14:11:03;6.90;;;6.40;;
22015;SDS011;64992;51.698;-0.292;2023-12-20T14:13:29;10.23;;;6.50;;